createdAt,value
2019-02-07T00:00:58.863Z,147056.44
2019-02-07T00:02:04.516Z,147063.97
2019-02-07T00:03:10.680Z,147046.38
2019-02-07T00:04:16.267Z,147055.17
2019-02-07T00:05:21.894Z,147058.97
2019-02-07T00:06:28.063Z,147051.44
2019-02-07T00:07:34.012Z,147064.59
2019-02-07T00:08:40.053Z,147154.39
2019-02-07T00:09:45.667Z,147159.44
2019-02-07T00:10:51.659Z,147129.27
2019-02-07T00:11:57.675Z,147107.94
2019-02-07T00:13:03.650Z,147085.97
2019-02-07T00:14:09.293Z,147066.50
2019-02-07T00:15:14.561Z,147065.86
2019-02-07T00:16:20.173Z,147067.13
2019-02-07T00:17:25.216Z,147089.09
2019-02-07T00:18:30.929Z,147062.70
2019-02-07T00:19:37.014Z,147030.06
2019-02-07T00:20:42.696Z,147051.44
2019-02-07T00:21:49.284Z,147082.19
2019-02-07T00:22:55.961Z,147116.73
2019-02-07T00:24:01.976Z,147101.67
2019-02-07T00:25:07.251Z,147156.92
2019-02-07T00:26:12.835Z,147133.69
2019-02-07T00:27:18.827Z,147139.95
2019-02-07T00:28:24.790Z,147144.38
2019-02-07T00:29:30.396Z,147148.12
2019-02-07T00:30:35.984Z,147124.89
2019-02-07T00:31:41.969Z,147124.89
2019-02-07T00:32:47.279Z,147119.89
2019-02-07T00:33:53.255Z,147087.81
2019-02-07T00:34:59.185Z,147069.02
2019-02-07T00:36:04.568Z,147068.39
2019-02-07T00:37:10.529Z,147087.19
2019-02-07T00:38:16.504Z,147058.33
2019-02-07T00:39:22.472Z,147054.55
2019-02-07T00:40:28.546Z,147089.72
2019-02-07T00:41:34.554Z,147114.20
2019-02-07T00:42:41.307Z,147079.66
2019-02-07T00:43:47.746Z,147039.48
2019-02-07T00:44:53.688Z,147025.69
2019-02-07T00:45:59.715Z,147010.63
2019-02-07T00:47:05.733Z,147004.94
2019-02-07T00:48:11.754Z,147000.58
2019-02-07T00:49:17.880Z,147031.31
2019-02-07T00:50:23.665Z,147085.34
2019-02-07T00:51:29.633Z,147105.41
2019-02-07T00:52:35.827Z,147143.75
2019-02-07T00:53:41.753Z,147123.00
2019-02-07T00:54:47.346Z,147098.52
2019-02-07T00:55:53.349Z,147053.91
2019-02-07T00:56:59.342Z,147017.53
2019-02-07T00:58:04.596Z,146995.53
2019-02-07T00:59:10.623Z,146973.56
2019-02-07T01:00:26.749Z,146988.00
2019-02-07T01:01:32.513Z,146979.20
2019-02-07T01:02:38.116Z,146999.94
2019-02-07T01:03:43.749Z,146985.52
2019-02-07T01:04:49.645Z,146957.25
2019-02-07T01:05:55.258Z,146929.63
2019-02-07T01:07:01.231Z,146927.09
2019-02-07T01:08:06.974Z,146942.20
2019-02-07T01:09:12.619Z,146932.14
2019-02-07T01:10:20.697Z,146959.78
2019-02-07T01:11:25.943Z,146964.78
2019-02-07T01:12:31.201Z,146988.00
2019-02-07T01:13:36.794Z,147014.37
2019-02-07T01:14:42.848Z,147027.53
2019-02-07T01:15:48.782Z,147015.00
2019-02-07T01:16:54.787Z,147026.95
2019-02-07T01:18:00.458Z,147029.42
2019-02-07T01:19:05.774Z,147002.42
2019-02-07T01:20:11.673Z,147056.44
2019-02-07T01:21:17.340Z,147063.33
2019-02-07T01:22:22.950Z,147071.50
2019-02-07T01:23:28.901Z,147099.78
2019-02-07T01:24:34.228Z,147045.13
2019-02-07T01:25:40.588Z,147016.89
2019-02-07T01:26:47.080Z,147058.33
2019-02-07T01:27:52.098Z,147030.06
2019-02-07T01:28:58.075Z,146991.78
2019-02-07T01:30:03.140Z,146980.47
2019-02-07T01:31:09.048Z,146949.72
2019-02-07T01:32:15.035Z,146966.05
2019-02-07T01:33:20.640Z,146962.89
2019-02-07T01:34:26.692Z,146960.36
2019-02-07T01:35:32.734Z,146940.94
2019-02-07T01:36:38.701Z,146943.47
2019-02-07T01:37:44.637Z,146981.09
2019-02-07T01:38:50.609Z,146981.73
2019-02-07T01:39:56.662Z,146983.00
2019-02-07T01:41:02.605Z,146963.52
2019-02-07T01:42:08.621Z,146977.94
2019-02-07T01:43:14.239Z,146959.16
2019-02-07T01:44:19.867Z,146978.56
2019-02-07T01:45:25.205Z,146965.41
2019-02-07T01:46:31.203Z,146954.72
2019-02-07T01:47:37.168Z,146944.67
2019-02-07T01:48:43.164Z,146939.03
2019-02-07T01:49:49.230Z,146928.98
2019-02-07T01:50:54.571Z,146931.52
2019-02-07T01:52:00.585Z,146928.36
2019-02-07T01:53:06.204Z,146922.72
2019-02-07T01:54:11.838Z,146916.47
2019-02-07T01:55:17.966Z,146905.16
2019-02-07T01:56:23.884Z,146907.67
2019-02-07T01:57:29.821Z,146897.00
2019-02-07T01:58:35.852Z,146890.09
2019-02-07T01:59:41.796Z,146876.31
2019-02-07T02:00:48.395Z,146959.78
2019-02-07T02:01:53.363Z,146944.67
2019-02-07T02:02:59.322Z,146937.14
2019-02-07T02:04:04.986Z,146956.63
2019-02-07T02:05:10.341Z,146937.14
2019-02-07T02:06:15.894Z,146937.14
2019-02-07T02:07:21.883Z,146946.56
2019-02-07T02:08:28.590Z,146987.36
2019-02-07T02:09:34.878Z,146949.72
2019-02-07T02:10:40.951Z,146961.63
2019-02-07T02:11:46.910Z,146949.09
2019-02-07T02:12:52.166Z,146990.52
2019-02-07T02:13:58.106Z,146988.00
2019-02-07T02:15:03.402Z,146971.05
2019-02-07T02:16:09.386Z,146984.89
2019-02-07T02:17:15.344Z,146964.16
2019-02-07T02:18:22.024Z,146984.25
2019-02-07T02:19:27.977Z,146960.36
2019-02-07T02:20:33.646Z,146982.36
2019-02-07T02:21:38.936Z,147011.84
2019-02-07T02:22:44.673Z,146993.05
2019-02-07T02:23:50.612Z,146962.89
2019-02-07T02:24:56.594Z,146959.78
2019-02-07T02:26:02.255Z,146958.52
2019-02-07T02:27:08.213Z,146938.41
2019-02-07T02:28:14.249Z,146929.63
2019-02-07T02:29:19.916Z,146936.52
2019-02-07T02:30:30.012Z,146944.67
2019-02-07T02:31:35.605Z,146941.56
2019-02-07T02:32:41.661Z,146942.20
2019-02-07T02:33:47.280Z,146957.25
2019-02-07T02:34:53.250Z,146970.41
2019-02-07T02:35:59.238Z,146984.25
2019-02-07T02:37:04.565Z,147022.53
2019-02-07T02:38:10.616Z,147066.50
2019-02-07T02:39:16.585Z,147020.63
2019-02-07T02:40:22.208Z,146977.94
2019-02-07T02:41:27.983Z,146955.36
2019-02-07T02:42:33.910Z,146959.16
2019-02-07T02:43:39.870Z,146930.25
2019-02-07T02:44:45.816Z,146922.09
2019-02-07T02:45:51.834Z,146900.78
2019-02-07T02:46:57.837Z,146913.31
2019-02-07T02:48:03.113Z,146920.20
2019-02-07T02:49:08.751Z,146923.98
2019-02-07T02:50:14.052Z,146947.20
2019-02-07T02:51:21.268Z,146956.00
2019-02-07T02:52:27.152Z,146959.78
2019-02-07T02:53:33.230Z,146964.78
2019-02-07T02:54:39.061Z,146960.36
2019-02-07T02:55:44.656Z,146920.20
2019-02-07T02:56:50.599Z,146927.09
2019-02-07T02:57:56.586Z,146914.56
2019-02-07T02:59:02.513Z,146915.83
2019-02-07T03:00:07.596Z,146883.20
2019-02-07T03:02:49.060Z,146879.41
2019-02-07T03:03:57.357Z,146872.53
2019-02-07T03:05:04.044Z,146878.78
2019-02-07T03:06:09.158Z,146880.05
2019-02-07T03:07:18.556Z,146918.94
2019-02-07T03:08:38.914Z,146908.94
2019-02-07T03:09:44.336Z,146910.78
2019-02-07T03:12:40.069Z,146909.56
2019-02-07T03:14:04.885Z,146914.56
2019-02-07T03:15:28.626Z,146915.83
2019-02-07T03:16:39.477Z,146917.09
2019-02-07T03:29:53.597Z,146905.16
2019-02-07T03:31:04.911Z,146907.05
2019-02-07T03:32:16.262Z,146906.41
2019-02-07T03:33:22.820Z,146906.41
2019-02-07T03:34:38.521Z,146907.05
2019-02-07T03:35:45.223Z,146910.16
2019-02-07T03:37:06.646Z,146937.14
2019-02-07T03:38:18.078Z,146927.72
2019-02-07T03:39:24.831Z,146927.09
2019-02-07T03:40:45.459Z,146938.41
2019-02-07T03:43:41.885Z,146917.09
2019-02-07T03:46:34.820Z,146954.09
2019-02-07T03:47:59.628Z,146966.67
2019-02-07T03:49:21.936Z,146946.56
2019-02-07T03:50:28.193Z,146937.14
2019-02-07T03:51:34.359Z,146907.05
2019-02-07T03:52:42.951Z,146897.00
2019-02-07T03:53:52.152Z,146908.94
2019-02-07T03:56:52.453Z,146914.56
2019-02-07T03:58:02.218Z,146934.03
2019-02-07T03:59:09.925Z,146921.47
2019-02-07T04:01:52.700Z,146917.09
2019-02-07T04:03:04.051Z,146938.41
2019-02-07T04:04:14.459Z,146917.09
2019-02-07T04:05:23.643Z,146925.25
2019-02-07T04:06:29.387Z,146912.05
2019-02-07T04:07:38.576Z,146937.78
2019-02-07T04:08:48.875Z,146959.16
2019-02-07T04:09:58.069Z,146955.36
2019-02-07T04:11:09.187Z,146977.94
2019-02-07T04:12:19.575Z,146997.42
2019-02-07T04:25:30.243Z,147049.53
2019-02-07T04:28:13.576Z,147155.66
2019-02-07T04:29:19.344Z,147188.31
2019-02-07T04:30:35.035Z,147246.75
2019-02-07T04:31:41.742Z,147241.73
2019-02-07T04:34:27.603Z,147306.44
2019-02-07T04:47:51.294Z,147346.70
2019-02-07T04:49:07.964Z,147318.41
2019-02-07T04:50:28.569Z,147288.84
2019-02-07T04:51:39.888Z,147301.44
2019-02-07T04:52:50.199Z,147302.06
2019-02-07T04:53:56.005Z,147266.23
2019-02-07T04:55:02.705Z,147237.94
2019-02-07T04:56:13.439Z,147268.77
2019-02-07T04:57:30.898Z,147243.00
2019-02-07T05:00:17.841Z,147256.17
2019-02-07T05:01:24.086Z,147273.14
2019-02-07T05:02:35.272Z,147356.09
2019-02-07T05:03:44.007Z,147357.36
2019-02-07T05:04:53.358Z,147376.22
2019-02-07T05:06:04.672Z,147375.59
2019-02-07T05:07:11.519Z,147351.08
2019-02-07T05:10:00.621Z,147349.81
2019-02-07T05:11:23.138Z,147339.75
2019-02-07T05:12:28.918Z,147338.53
2019-02-07T05:13:41.205Z,147325.94
2019-02-07T05:15:03.781Z,147322.16
2019-02-07T05:16:10.355Z,147314.62
2019-02-07T05:17:19.545Z,147303.97
2019-02-07T05:18:40.159Z,147288.22
2019-02-07T05:19:51.747Z,147303.97
2019-02-07T05:33:09.965Z,147246.11
2019-02-07T05:34:19.375Z,147280.67
2019-02-07T05:35:30.802Z,147284.47
2019-02-07T05:36:36.558Z,147310.23
2019-02-07T05:39:42.586Z,147290.11
2019-02-07T05:41:13.180Z,147305.19
2019-02-07T05:43:58.976Z,147373.06
2019-02-07T05:45:06.349Z,147422.14
2019-02-07T05:46:11.790Z,147405.17
2019-02-07T05:47:22.995Z,147425.25
2019-02-07T05:50:08.457Z,147408.91
2019-02-07T05:51:14.258Z,147381.25
2019-02-07T05:52:25.752Z,147389.41
2019-02-07T05:53:35.661Z,147398.22
2019-02-07T05:54:56.291Z,147443.50
2019-02-07T05:56:05.018Z,147478.09
2019-02-07T05:57:11.176Z,147478.72
2019-02-07T06:10:46.467Z,147529.03
2019-02-07T06:24:07.341Z,147729.73
2019-02-07T06:25:18.897Z,147698.28
2019-02-07T06:26:33.274Z,147671.84
2019-02-07T06:27:41.580Z,147685.05
2019-02-07T06:28:50.017Z,147685.67
2019-02-07T06:42:11.554Z,147754.92
2019-02-07T06:43:17.734Z,147763.09
2019-02-07T06:44:24.077Z,147787.02
2019-02-07T06:45:31.821Z,147725.36
2019-02-07T06:46:38.578Z,147709.58
2019-02-07T06:49:18.053Z,147683.83
2019-02-07T06:50:26.299Z,147712.75
2019-02-07T06:51:34.058Z,147693.22
2019-02-07T06:52:41.359Z,147684.41
2019-02-07T06:53:52.681Z,147681.92
2019-02-07T06:55:04.275Z,147695.13
2019-02-07T06:56:11.970Z,147674.37
2019-02-07T06:57:21.849Z,147688.20
2019-02-07T07:00:05.748Z,147661.14
2019-02-07T07:01:14.129Z,147663.67
2019-02-07T07:02:30.622Z,147696.39
2019-02-07T07:03:36.373Z,147731.00
2019-02-07T07:04:48.394Z,147692.59
2019-02-07T07:06:08.477Z,147700.19
2019-02-07T07:09:11.596Z,147688.20
2019-02-07T07:10:46.079Z,147694.48
2019-02-07T07:12:16.082Z,147671.84
2019-02-07T07:13:24.351Z,147678.13
2019-02-07T07:14:33.571Z,147649.20
2019-02-07T07:15:44.972Z,147641.66
2019-02-07T07:29:05.942Z,147722.83
2019-02-07T07:30:15.451Z,147677.50
2019-02-07T07:31:26.411Z,147658.61
2019-02-07T07:34:09.995Z,147724.09
2019-02-07T07:35:21.866Z,147791.45
2019-02-07T07:48:46.209Z,147707.73
2019-02-07T07:49:55.033Z,147709.00
2019-02-07T07:51:01.300Z,147672.48
2019-02-07T08:14:53.544Z,147808.44
2019-02-07T08:16:05.035Z,147799.00
2019-02-07T08:17:14.692Z,147817.27
2019-02-07T08:18:25.495Z,147814.73
2019-02-07T08:21:12.802Z,147819.11
2019-02-07T08:22:19.499Z,147834.89
2019-02-07T08:25:06.252Z,147843.08
2019-02-07T08:26:25.452Z,147875.81
2019-02-07T08:27:31.790Z,147850.00
2019-02-07T08:28:57.420Z,147870.75
2019-02-07T08:30:14.162Z,147924.94
2019-02-07T08:31:20.383Z,147959.59
2019-02-07T08:32:44.880Z,147961.48
2019-02-07T08:46:05.858Z,147963.34
2019-02-07T08:47:14.583Z,147961.48
2019-02-07T08:48:23.047Z,147966.50
2019-02-07T08:49:45.229Z,147978.50
2019-02-07T08:50:52.903Z,147978.50
2019-02-07T08:51:59.333Z,147962.70
2019-02-07T08:53:05.194Z,147957.05
2019-02-07T08:55:56.906Z,147948.23
2019-02-07T08:57:05.230Z,148036.45
2019-02-07T08:58:12.499Z,148102.61
2019-02-07T08:59:28.245Z,148061.03
2019-02-07T09:00:36.994Z,148083.69
2019-02-07T09:01:44.138Z,148023.83
2019-02-07T09:15:08.827Z,148064.14
2019-02-07T09:16:27.368Z,148085.59
2019-02-07T09:17:47.708Z,148072.97
2019-02-07T09:19:03.365Z,148052.83
2019-02-07T09:20:23.115Z,148060.39
2019-02-07T09:21:29.798Z,148067.94
2019-02-07T09:22:55.976Z,148085.59
2019-02-07T09:24:02.513Z,148110.17
2019-02-07T09:25:25.357Z,148121.53
2019-02-07T09:26:36.572Z,148164.98
2019-02-07T09:27:42.761Z,148170.69
2019-02-07T09:29:05.262Z,148141.03
2019-02-07T09:30:17.217Z,148185.17
2019-02-07T09:31:22.963Z,148165.63
2019-02-07T09:44:48.748Z,148279.77
2019-02-07T09:46:04.426Z,148312.55
2019-02-07T09:47:11.059Z,148320.11
2019-02-07T09:48:32.732Z,148277.22
2019-02-07T09:49:48.430Z,148301.81
2019-02-07T09:50:53.927Z,148299.33
2019-02-07T09:52:02.207Z,148298.69
2019-02-07T09:54:59.325Z,148310.02
2019-02-07T09:57:53.782Z,148390.14
2019-02-07T09:59:17.004Z,148390.14
2019-02-07T10:00:25.292Z,148424.84
2019-02-07T10:01:31.005Z,148431.14
2019-02-07T10:02:38.968Z,148427.34
2019-02-07T10:03:50.260Z,148412.20
2019-02-07T10:05:00.512Z,148421.67
2019-02-07T10:18:20.333Z,148455.13
2019-02-07T10:19:31.704Z,148421.05
2019-02-07T10:32:54.975Z,148465.86
2019-02-07T10:35:44.985Z,148486.66
2019-02-07T10:36:56.088Z,148497.39
2019-02-07T10:38:02.632Z,148513.80
2019-02-07T10:39:14.109Z,148516.34
2019-02-07T10:40:34.393Z,148542.86
2019-02-07T10:41:43.983Z,148532.11
2019-02-07T10:42:54.176Z,148518.87
2019-02-07T10:44:00.409Z,148535.28
2019-02-07T10:45:05.428Z,148542.86
2019-02-07T10:46:23.927Z,148550.42
2019-02-07T10:49:05.689Z,148571.23
2019-02-07T10:50:28.067Z,148611.67
2019-02-07T10:51:34.127Z,148620.47
2019-02-07T10:52:45.435Z,148632.47
2019-02-07T10:53:53.600Z,148656.47
2019-02-07T11:07:15.007Z,148707.61
2019-02-07T11:08:33.115Z,148737.97
2019-02-07T11:09:44.344Z,148751.84
2019-02-07T11:10:55.664Z,148762.59
2019-02-07T11:12:01.050Z,148792.25
2019-02-07T11:14:51.288Z,148780.28
2019-02-07T11:16:03.056Z,148746.80
2019-02-07T11:17:23.787Z,148768.25
2019-02-07T11:18:33.512Z,148752.47
2019-02-07T11:19:41.764Z,148786.58
2019-02-07T11:20:48.028Z,148790.98
2019-02-07T11:23:33.438Z,148817.52
2019-02-07T11:26:17.433Z,148778.38
2019-02-07T11:29:05.308Z,148790.98
2019-02-07T11:42:22.226Z,148877.55
2019-02-07T11:45:03.817Z,148909.77
2019-02-07T11:46:15.108Z,148852.91
2019-02-07T11:47:26.070Z,148870.61
2019-02-07T11:48:41.736Z,148880.72
2019-02-07T11:49:49.643Z,148876.28
2019-02-07T11:51:01.879Z,148885.13
2019-02-07T11:52:12.356Z,148923.70
2019-02-07T11:53:38.979Z,148950.89
2019-02-07T11:54:45.746Z,148930.69
2019-02-07T11:57:30.659Z,148966.73
2019-02-07T12:10:50.546Z,148945.22
2019-02-07T12:11:56.858Z,148991.38
2019-02-07T12:13:09.030Z,148964.19
2019-02-07T12:14:20.455Z,148982.53
2019-02-07T12:15:30.707Z,148973.05
2019-02-07T12:16:41.857Z,148967.95
2019-02-07T12:19:40.466Z,149009.08
2019-02-07T12:20:49.759Z,148981.25
2019-02-07T12:22:00.088Z,148972.41
2019-02-07T12:23:06.899Z,148924.34
2019-02-07T12:24:17.007Z,148922.44
2019-02-07T12:25:28.431Z,148938.28
2019-02-07T12:26:34.687Z,148940.81
2019-02-07T12:27:44.928Z,148962.92
2019-02-07T12:28:54.635Z,148921.16
2019-02-07T12:30:05.529Z,148917.98
2019-02-07T12:31:11.017Z,148885.13
2019-02-07T12:34:06.856Z,148855.45
2019-02-07T12:35:28.359Z,148830.81
2019-02-07T12:36:36.484Z,148795.44
2019-02-07T12:37:57.943Z,148822.59
2019-02-07T12:39:05.910Z,148806.77
2019-02-07T12:40:16.359Z,148808.03
2019-02-07T12:43:04.226Z,148811.22
2019-02-07T12:44:16.517Z,148766.98
2019-02-07T12:45:38.153Z,148775.83
2019-02-07T12:46:49.701Z,148772.06
2019-02-07T12:47:55.490Z,148772.66
2019-02-07T12:49:04.249Z,148759.41
2019-02-07T12:50:27.994Z,148716.47
2019-02-07T12:51:35.516Z,148735.42
2019-02-07T12:52:41.268Z,148751.84
2019-02-07T12:55:35.503Z,148777.73
2019-02-07T12:57:04.554Z,148697.50
2019-02-07T12:58:12.697Z,148678.59
2019-02-07T12:59:23.665Z,148733.52
2019-02-07T13:00:34.672Z,148705.70
2019-02-07T13:03:25.292Z,148691.20
2019-02-07T13:04:36.154Z,148763.86
2019-02-07T13:05:43.698Z,148702.59
2019-02-07T13:07:06.928Z,148693.73
2019-02-07T13:09:50.508Z,148688.66
2019-02-07T13:12:36.478Z,148725.94
2019-02-07T13:13:52.140Z,148761.31
2019-02-07T13:14:57.825Z,148736.69
2019-02-07T13:16:13.926Z,148763.22
2019-02-07T13:29:32.068Z,148653.97
2019-02-07T13:30:41.044Z,148665.31
2019-02-07T13:31:46.974Z,148646.34
2019-02-07T13:32:52.784Z,148697.50
2019-02-07T13:34:04.376Z,148706.34
2019-02-07T13:36:44.642Z,148753.11
2019-02-07T13:39:29.431Z,148756.23
2019-02-07T13:40:49.722Z,148775.83
2019-02-07T13:42:10.793Z,148796.06
2019-02-07T13:43:22.831Z,148803.64
2019-02-07T13:44:33.428Z,148756.23
2019-02-07T13:45:45.927Z,148698.14
2019-02-07T13:46:55.632Z,148684.89
2019-02-07T13:48:07.358Z,148751.84
2019-02-07T13:49:13.939Z,148702.59
2019-02-07T13:50:22.260Z,148677.33
2019-02-07T13:51:32.552Z,148671.61
2019-02-07T13:54:12.939Z,148669.11
2019-02-07T13:57:04.597Z,148679.81
2019-02-07T13:59:48.621Z,148703.22
2019-02-07T14:00:59.535Z,148754.38
2019-02-07T14:02:07.670Z,148751.20
2019-02-07T14:03:17.665Z,148736.06
2019-02-07T14:04:28.630Z,148703.86
2019-02-07T14:05:35.178Z,148780.28
2019-02-07T14:06:50.880Z,148831.45
2019-02-07T14:08:02.388Z,148830.81
2019-02-07T14:09:13.125Z,148786.58
2019-02-07T14:12:08.818Z,148815.61
2019-02-07T14:13:42.059Z,148871.25
2019-02-07T14:15:04.765Z,148820.69
2019-02-07T14:16:26.634Z,148779.00
2019-02-07T14:19:30.027Z,148847.88
2019-02-07T14:20:40.856Z,148798.56
2019-02-07T14:34:00.790Z,148938.91
2019-02-07T14:35:26.578Z,148936.38
2019-02-07T14:38:11.492Z,148839.66
2019-02-07T14:39:21.662Z,148821.33
2019-02-07T14:40:43.974Z,148837.75
2019-02-07T14:41:54.392Z,148858.58
2019-02-07T14:43:03.174Z,148863.03
2019-02-07T14:44:12.128Z,148907.86
2019-02-07T14:45:18.945Z,148876.91
2019-02-07T14:46:28.258Z,148857.94
2019-02-07T14:47:34.260Z,148843.42
2019-02-07T14:48:40.320Z,148830.81
2019-02-07T14:49:46.354Z,148854.81
2019-02-07T14:50:51.657Z,148808.67
2019-02-07T14:51:57.439Z,148836.48
2019-02-07T14:53:03.548Z,148824.47
2019-02-07T14:54:09.269Z,148833.31
2019-02-07T14:55:14.524Z,148854.19
2019-02-07T14:56:20.528Z,148899.06
2019-02-07T14:57:26.538Z,148909.77
2019-02-07T14:58:32.594Z,148861.75
2019-02-07T14:59:37.897Z,148828.28
2019-02-07T15:00:43.888Z,148879.45
2019-02-07T15:01:50.434Z,148873.78
2019-02-07T15:02:56.468Z,148876.91
2019-02-07T15:04:02.128Z,148899.66
2019-02-07T15:05:07.427Z,148882.00
2019-02-07T15:06:13.450Z,148875.00
2019-02-07T15:07:19.403Z,148862.39
2019-02-07T15:08:25.039Z,148868.70
2019-02-07T15:09:31.011Z,148897.16
2019-02-07T15:10:37.021Z,148893.97
2019-02-07T15:11:43.714Z,148856.09
2019-02-07T15:12:49.957Z,148891.44
2019-02-07T15:13:56.011Z,148890.22
2019-02-07T15:15:02.008Z,148895.25
2019-02-07T15:16:07.269Z,148887.03
2019-02-07T15:17:13.315Z,148876.91
2019-02-07T15:18:19.287Z,148887.67
2019-02-07T15:19:25.279Z,148882.59
2019-02-07T15:20:32.037Z,148892.70
2019-02-07T15:21:38.071Z,148861.13
2019-02-07T15:22:43.894Z,148847.25
2019-02-07T15:23:49.912Z,148857.94
2019-02-07T15:24:55.958Z,148857.31
2019-02-07T15:26:01.988Z,148863.03
2019-02-07T15:27:08.040Z,148886.41
2019-02-07T15:28:13.641Z,148883.86
2019-02-07T15:29:19.367Z,148878.19
2019-02-07T15:30:24.643Z,148848.52
2019-02-07T15:31:31.027Z,148852.28
2019-02-07T15:32:37.963Z,148857.31
2019-02-07T15:33:44.314Z,148855.45
2019-02-07T15:34:50.313Z,148861.75
2019-02-07T15:35:56.363Z,148880.09
2019-02-07T15:37:02.292Z,148871.25
2019-02-07T15:38:07.574Z,148854.19
2019-02-07T15:39:12.697Z,148863.66
2019-02-07T15:40:17.985Z,148837.75
2019-02-07T15:41:23.671Z,148853.55
2019-02-07T15:42:29.675Z,148849.09
2019-02-07T15:43:35.315Z,148849.09
2019-02-07T15:44:41.330Z,148842.80
2019-02-07T15:45:49.288Z,148832.03
2019-02-07T15:46:54.908Z,148822.59
2019-02-07T15:48:00.546Z,148815.61
2019-02-07T15:49:05.928Z,148818.78
2019-02-07T15:50:18.435Z,148820.06
2019-02-07T15:51:24.059Z,148812.48
2019-02-07T15:52:29.705Z,148818.16
2019-02-07T15:53:35.650Z,148817.52
2019-02-07T15:54:42.485Z,148822.59
2019-02-07T15:55:48.997Z,148808.03
2019-02-07T15:56:54.641Z,148811.84
2019-02-07T15:57:59.916Z,148811.84
2019-02-07T15:59:10.485Z,148796.70
2019-02-07T16:00:35.771Z,148804.91
2019-02-07T16:01:41.188Z,148778.38
2019-02-07T16:02:47.062Z,148797.92
2019-02-07T16:04:07.733Z,148770.80
2019-02-07T16:05:13.099Z,148766.98
2019-02-07T16:06:19.071Z,148737.97
2019-02-07T16:07:25.128Z,148763.86
2019-02-07T16:08:30.811Z,148769.53
2019-02-07T16:09:36.595Z,148765.08
2019-02-07T16:10:42.763Z,148753.11
2019-02-07T16:11:48.471Z,148748.03
2019-02-07T16:12:54.425Z,148741.72
2019-02-07T16:14:00.426Z,148746.80
2019-02-07T16:15:05.761Z,148748.03
2019-02-07T16:16:12.518Z,148724.03
2019-02-07T16:17:19.034Z,148723.39
2019-02-07T16:18:24.732Z,148734.78
2019-02-07T16:19:30.471Z,148727.84
2019-02-07T16:20:35.829Z,148726.56
2019-02-07T16:21:41.668Z,148683.63
2019-02-07T16:22:47.317Z,148665.94
2019-02-07T16:23:53.370Z,148680.45
2019-02-07T16:24:59.430Z,148685.53
2019-02-07T16:26:06.013Z,148701.95
2019-02-07T16:27:12.095Z,148699.41
2019-02-07T16:28:20.294Z,148688.66
2019-02-07T16:29:24.108Z,148693.09
2019-02-07T16:30:30.635Z,148681.09
2019-02-07T16:31:34.995Z,148674.16
2019-02-07T16:32:40.438Z,148660.91
2019-02-07T16:33:46.137Z,148658.38
2019-02-07T16:34:51.889Z,148655.19
2019-02-07T16:35:57.983Z,148645.13
2019-02-07T16:37:03.347Z,148651.44
2019-02-07T16:38:08.669Z,148652.70
2019-02-07T16:39:13.923Z,148648.89
2019-02-07T16:40:21.775Z,148657.73
2019-02-07T16:41:24.975Z,148652.06
2019-02-07T16:42:31.069Z,148653.34
2019-02-07T16:43:36.847Z,148646.98
2019-02-07T16:44:42.854Z,148656.47
2019-02-07T16:45:48.583Z,148605.31
2019-02-07T16:46:55.531Z,148625.55
2019-02-07T16:48:01.261Z,148657.73
2019-02-07T16:49:06.874Z,148658.38
2019-02-07T16:50:12.968Z,148659.64
2019-02-07T16:51:18.247Z,148686.80
2019-02-07T16:52:23.622Z,148686.80
2019-02-07T16:53:29.012Z,148643.86
2019-02-07T16:54:35.399Z,148640.69
2019-02-07T16:55:41.370Z,148643.86
2019-02-07T16:56:47.430Z,148649.53
2019-02-07T16:57:53.077Z,148654.56
2019-02-07T16:58:59.474Z,148626.81
2019-02-07T17:00:16.182Z,148643.86
2019-02-07T17:01:21.445Z,148631.84
2019-02-07T17:02:27.053Z,148631.20
2019-02-07T17:03:32.723Z,148626.17
2019-02-07T17:04:38.723Z,148633.11
2019-02-07T17:05:44.461Z,148621.73
2019-02-07T17:06:50.438Z,148613.53
2019-02-07T17:07:56.051Z,148604.05
2019-02-07T17:09:02.037Z,148612.89
2019-02-07T17:10:10.868Z,148624.28
2019-02-07T17:11:16.218Z,148630.56
2019-02-07T17:12:22.133Z,148616.70
2019-02-07T17:13:28.242Z,148627.44
2019-02-07T17:14:33.533Z,148609.13
2019-02-07T17:15:39.191Z,148615.44
2019-02-07T17:16:45.124Z,148611.67
2019-02-07T17:17:50.832Z,148595.84
2019-02-07T17:18:56.420Z,148600.28
2019-02-07T17:20:02.059Z,148614.16
2019-02-07T17:21:12.081Z,148612.89
2019-02-07T17:22:13.485Z,148627.44
2019-02-07T17:23:19.481Z,148593.36
2019-02-07T17:24:25.549Z,148565.56
2019-02-07T17:25:30.903Z,148602.83
2019-02-07T17:26:36.941Z,148612.89
2019-02-07T17:27:42.873Z,148569.37
2019-02-07T17:28:48.818Z,148552.92
2019-02-07T17:29:54.464Z,148572.50
2019-02-07T17:31:00.808Z,148593.98
2019-02-07T17:32:06.905Z,148586.42
2019-02-07T17:33:12.534Z,148595.20
2019-02-07T17:34:18.497Z,148574.41
2019-02-07T17:35:24.192Z,148571.86
2019-02-07T17:36:29.890Z,148607.22
2019-02-07T17:37:35.863Z,148578.16
2019-02-07T17:38:41.827Z,148567.47
2019-02-07T17:39:48.241Z,148535.88
2019-02-07T17:40:54.137Z,148557.36
2019-02-07T17:42:00.779Z,148569.97
2019-02-07T17:43:06.931Z,148549.78
2019-02-07T17:44:12.159Z,148520.73
2019-02-07T17:45:18.274Z,148554.19
2019-02-07T17:46:24.821Z,148544.72
2019-02-07T17:47:31.534Z,148575.03
2019-02-07T17:48:37.272Z,148573.77
2019-02-07T17:49:42.881Z,148583.25
2019-02-07T17:50:48.550Z,148586.42
2019-02-07T17:51:54.210Z,148571.23
2019-02-07T17:52:59.502Z,148585.16
2019-02-07T17:54:04.856Z,148578.80
2019-02-07T17:55:10.903Z,148563.03
2019-02-07T17:56:19.024Z,148575.03
2019-02-07T17:57:25.220Z,148564.92
2019-02-07T17:58:31.229Z,148573.77
2019-02-07T17:59:37.334Z,148584.52
2019-02-07T18:00:48.658Z,148579.44
2019-02-07T18:01:54.627Z,148568.73
2019-02-07T18:03:01.038Z,148576.94
2019-02-07T18:04:07.183Z,148579.44
2019-02-07T18:05:12.822Z,148603.47
2019-02-07T18:06:18.479Z,148594.62
2019-02-07T18:07:24.167Z,148566.20
2019-02-07T18:08:29.732Z,148558.00
2019-02-07T18:09:35.360Z,148583.87
2019-02-07T18:10:41.085Z,148585.78
2019-02-07T18:11:47.085Z,148593.98
2019-02-07T18:12:52.497Z,148585.78
2019-02-07T18:13:58.462Z,148599.66
2019-02-07T18:15:03.751Z,148592.72
2019-02-07T18:16:09.497Z,148552.33
2019-02-07T18:17:15.167Z,148566.20
2019-02-07T18:18:21.960Z,148578.16
2019-02-07T18:19:27.904Z,148569.37
2019-02-07T18:20:33.282Z,148581.97
2019-02-07T18:21:42.548Z,148568.09
2019-02-07T18:22:48.608Z,148547.88
2019-02-07T18:23:54.585Z,148543.50
2019-02-07T18:25:00.551Z,148566.20
2019-02-07T18:26:06.562Z,148558.00
2019-02-07T18:27:12.405Z,148553.55
2019-02-07T18:28:18.311Z,148562.39
2019-02-07T18:29:23.902Z,148549.16
2019-02-07T18:30:29.552Z,148556.72
2019-02-07T18:31:35.561Z,148555.45